Flight Track Log - Related Links

Times and Time Zones

All times are in EDT time to prevent confusion due to time zone crossing. See the N48AZ flight status page for this flight to view local times or setup timezone preferences in your user account.

Time Position Orientation Groundspeed Altitude Reporting Facility
EDT Latitude Longitude Course Direction KTS MPH feet Rate Location/Type
Thu 10:51:59 AM 35.6594 -120.6394 71° East 135 155 1,300  Level Oakland Center
Thu 10:53:00 AM 35.6672 -120.6117 71° East 144 166 2,700 1,463 Climbing Oakland Center
Thu 10:54:02 AM 35.7189 -120.6161 356° North 158 182 4,300 1,415 Climbing Oakland Center
Thu 10:55:03 AM 35.7658 -120.6214 355° North 167 192 5,600 1,180 Climbing Oakland Center
Thu 10:56:04 AM 35.8128 -120.6272 354° North 168 193 6,700 1,122 Climbing Oakland Center
Thu 10:57:06 AM 35.8542 -120.6608 327° Northwest 176 203 7,900 1,122 Climbing Oakland Center
Thu 10:58:07 AM 35.9008 -120.6933 331° Northwest 186 214 9,000 1,131 Climbing Oakland Center
Thu 10:59:08 AM 35.9467 -120.7278 329° Northwest 192 221 10,200 1,171 Climbing Oakland Center
Thu 11:00:10 AM 35.9917 -120.7622 328° Northwest 190 219 11,400 1,065 Climbing Oakland Center
Thu 11:01:12 AM 36.0375 -120.7958 329° Northwest 191 220 12,400 1,024 Climbing Oakland Center
Thu 11:02:13 AM 36.0842 -120.8308 329° Northwest 194 223 13,500 1,180 Climbing Oakland Center
Thu 11:03:14 AM 36.1436 -120.8756 329° Northwest 205 236 14,800 1,180 Climbing Oakland Center
Thu 11:04:15 AM 36.1936 -120.9128 329° Northwest 208 239 15,900 537 Climbing Oakland Center
Thu 11:05:17 AM 36.2481 -120.9528 329° Northwest 219 252 15,900  Level Oakland Center
Thu 11:06:18 AM 36.3083 -121.0000 328° Northwest 242 278 15,900  Level Oakland Center
Thu 11:07:19 AM 36.3692 -121.0461 329° Northwest 252 290 15,900  Level Oakland Center
Thu 11:08:21 AM 36.4317 -121.0931 329° Northwest 258 297 15,900  Level Oakland Center
Thu 11:09:22 AM 36.4947 -121.1400 329° Northwest 261 300 15,900 -49 Level Oakland Center
Thu 11:10:23 AM 36.5561 -121.1883 328° Northwest 262 302 15,800 -590 Descending Oakland Center
Thu 11:11:24 AM 36.6175 -121.2331 330° Northwest 259 298 14,700 -1,268 Descending Oakland Center
Thu 11:12:26 AM 36.6878 -121.2897 327° Northwest 253 291 13,200 -1,366 Descending Oakland Center
Thu 11:13:27 AM 36.7425 -121.3311 329° Northwest 242 278 11,900 -1,426 Descending Oakland Center
Thu 11:14:28 AM 36.7983 -121.3739 328° Northwest 238 274 10,300 -1,610 Descending Oakland Center
Thu 11:15:30 AM 36.8517 -121.4119 330° Northwest 228 262 8,600 -1,610 Descending Oakland Center
Thu 11:16:31 AM 36.9036 -121.4514 329° Northwest 220 253 7,000 -1,171 Descending Oakland Center
Thu 11:17:33 AM 36.9503 -121.4917 325° Northwest 210 242 6,200 -634 Descending Oakland Center
Thu 11:18:34 AM 36.9983 -121.5322 326° Northwest 207 238 5,700 -537 Descending Oakland Center
Thu 11:19:36 AM 37.0500 -121.5728 328° Northwest 213 245 5,100 -341 Descending Oakland Center
Thu 11:20:37 AM 37.0997 -121.5969 339° North 205 236 5,000 -49 Descending Oakland Center
Thu 11:21:38 AM 37.1606 -121.6264 339° North 203 234 5,000 -390 Level Oakland Center
Thu 11:22:40 AM 37.2033 -121.6789 316° Northwest 208 239 4,200 -1,073 Descending Oakland Center
Thu 11:23:41 AM 37.2442 -121.7350 312° West 214 246 2,800 -1,220 Descending Oakland Center
Thu 11:24:43 AM 37.2797 -121.7733 319° Northwest 185 213 1,700 -1,171 Descending Oakland Center
Thu 11:25:44 AM 37.3156 -121.8022 327° Northwest 166 191 400 -732 Descending Oakland Center
Thu 11:26:46 AM 37.3431 -121.8269 324° Northwest 157 181 200 -194 Descending Oakland Center
Thu 11:28:00 AM 37.3329 -121.8198 180° South  Level Estimated

Login

Don't have an account? Register now (free) for customized features, flight alerts, and more!